createdAt,value
2023-02-24T00:02:53.921Z,15.50
2023-02-24T00:07:55.392Z,16.48
2023-02-24T00:12:56.814Z,15.48
2023-02-24T00:17:58.884Z,14.52
2023-02-24T00:23:03.965Z,14.93
2023-02-24T00:28:05.289Z,14.00
2023-02-24T00:33:07.092Z,14.07
2023-02-24T00:38:08.613Z,15.25
2023-02-24T00:43:11.322Z,12.85
2023-02-24T00:48:15.347Z,13.00
2023-02-24T00:53:18.597Z,11.27
2023-02-24T00:58:20.767Z,11.43
2023-02-24T01:03:23.111Z,12.32
2023-02-24T01:08:24.844Z,11.90
2023-02-24T01:13:27.460Z,12.88
2023-02-24T01:18:31.747Z,12.30
2023-02-24T01:23:33.416Z,10.55
2023-02-24T01:28:35.442Z,10.07
2023-02-24T01:33:39.572Z,10.73
2023-02-24T01:38:42.239Z,10.15
2023-02-24T01:44:06.130Z,9.07
2023-02-24T01:49:15.879Z,9.60
2023-02-24T01:54:21.079Z,9.75
2023-02-24T01:59:26.115Z,8.43
2023-02-24T02:04:45.314Z,9.80
2023-02-24T02:09:48.398Z,7.80
2023-02-24T02:14:53.544Z,8.55
2023-02-24T02:20:20.441Z,9.77
2023-02-24T02:25:40.481Z,7.97
2023-02-24T02:31:04.262Z,8.05
2023-02-24T02:36:31.751Z,8.48
2023-02-24T02:41:53.628Z,8.13
2023-02-24T02:47:24.349Z,7.50
2023-02-24T02:52:47.446Z,7.95
2023-02-24T02:57:52.300Z,8.15
2023-02-24T03:03:04.127Z,8.35
2023-02-24T03:08:11.810Z,8.32
2023-02-24T03:13:16.481Z,8.98
2023-02-24T03:18:32.218Z,8.85
2023-02-24T03:23:50.567Z,7.63
2023-02-24T03:28:59.493Z,7.50
2023-02-24T03:34:10.267Z,7.32
2023-02-24T03:39:12.642Z,8.35
2023-02-24T03:44:14.998Z,7.00
2023-02-24T03:49:16.654Z,7.47
2023-02-24T03:54:44.841Z,7.22
2023-02-24T04:00:26.287Z,8.07
2023-02-24T04:05:32.699Z,8.40
2023-02-24T04:10:41.180Z,7.88
2023-02-24T04:15:47.300Z,11.77
2023-02-24T04:20:53.660Z,13.15
2023-02-24T04:25:58.044Z,10.57
2023-02-24T04:31:10.129Z,13.00
2023-02-24T04:36:12.820Z,13.43
2023-02-24T04:41:21.953Z,12.30
2023-02-24T04:46:26.366Z,13.48
2023-02-24T04:51:31.892Z,13.95
2023-02-24T04:56:33.522Z,13.43
2023-02-24T05:01:34.973Z,15.23
2023-02-24T05:06:41.236Z,13.80
2023-02-24T05:11:44.528Z,13.73
2023-02-24T05:16:48.395Z,15.10
2023-02-24T05:21:50.218Z,16.43
2023-02-24T05:26:58.104Z,17.33
2023-02-24T05:32:00.339Z,14.80
2023-02-24T05:37:10.093Z,13.65
2023-02-24T05:42:11.648Z,16.10
2023-02-24T05:47:13.084Z,15.02
2023-02-24T05:52:14.796Z,14.52
2023-02-24T05:57:21.541Z,15.15
2023-02-24T06:02:29.447Z,14.00
2023-02-24T06:07:34.926Z,14.45
2023-02-24T06:12:39.807Z,16.27
2023-02-24T06:17:41.382Z,15.63
2023-02-24T06:22:43.035Z,16.20
2023-02-24T06:27:44.910Z,14.75
2023-02-24T06:32:46.388Z,15.98
2023-02-24T06:37:48.041Z,16.90
2023-02-24T06:42:54.264Z,15.60
2023-02-24T06:47:55.915Z,16.38
2023-02-24T06:53:00.682Z,16.88
2023-02-24T06:58:06.471Z,14.52
2023-02-24T07:03:16.965Z,15.85
2023-02-24T07:08:23.505Z,15.52
2023-02-24T07:13:29.911Z,14.80
2023-02-24T07:18:31.377Z,14.00
2023-02-24T07:23:32.787Z,15.43
2023-02-24T07:28:34.466Z,15.13
2023-02-24T07:33:36.883Z,15.00
2023-02-24T07:38:39.303Z,14.75
2023-02-24T07:43:42.226Z,15.07
2023-02-24T07:48:43.919Z,15.32
2023-02-24T07:53:51.578Z,15.57
2023-02-24T07:59:03.031Z,14.48
2023-02-24T08:04:08.142Z,15.57
2023-02-24T08:09:21.167Z,15.52
2023-02-24T08:14:35.032Z,17.00
2023-02-24T08:19:40.096Z,17.27
2023-02-24T08:24:45.392Z,16.55
2023-02-24T08:30:03.728Z,17.42
2023-02-24T08:35:15.486Z,17.73
2023-02-24T08:40:34.155Z,17.60
2023-02-24T08:45:38.477Z,15.40
2023-02-24T08:50:40.037Z,16.40
2023-02-24T08:55:42.789Z,13.73
2023-02-24T09:00:49.591Z,13.63
2023-02-24T09:05:51.026Z,12.80
2023-02-24T09:10:52.421Z,13.35
2023-02-24T09:15:54.158Z,13.13
2023-02-24T09:21:36.941Z,10.52
2023-02-24T09:26:44.339Z,10.30
2023-02-24T09:31:55.412Z,9.75
2023-02-24T09:37:03.890Z,9.63
2023-02-24T09:42:12.490Z,11.20
2023-02-24T09:47:31.520Z,11.38
2023-02-24T09:52:43.043Z,11.52
2023-02-24T09:58:09.369Z,10.30
2023-02-24T10:03:25.035Z,10.77
2023-02-24T10:08:33.433Z,11.75
2023-02-24T10:13:38.688Z,10.95
2023-02-24T10:19:01.046Z,11.15
2023-02-24T10:24:14.665Z,12.73
2023-02-24T10:29:29.640Z,10.23
2023-02-24T10:34:34.488Z,10.00
2023-02-24T10:39:36.017Z,10.25
2023-02-24T10:44:38.889Z,8.95
2023-02-24T10:49:42.985Z,8.90
2023-02-24T10:55:05.130Z,9.48
2023-02-24T11:00:31.160Z,10.10
2023-02-24T11:06:01.859Z,9.57
2023-02-24T11:11:20.479Z,9.00
2023-02-24T11:16:54.348Z,8.35
2023-02-24T11:21:56.861Z,9.17
2023-02-24T11:26:58.655Z,9.20
2023-02-24T11:32:48.545Z,8.93
2023-02-24T11:38:08.104Z,9.15
2023-02-24T11:43:20.723Z,7.47
2023-02-24T11:48:28.265Z,7.20
2023-02-24T11:53:46.274Z,7.72
2023-02-24T11:59:01.168Z,7.57
2023-02-24T12:04:18.800Z,7.28
2023-02-24T12:09:26.396Z,7.35
2023-02-24T12:14:45.331Z,7.40
2023-02-24T12:19:57.746Z,7.10
2023-02-24T12:24:59.373Z,6.95
2023-02-24T12:30:06.503Z,7.95
2023-02-24T12:35:53.368Z,8.05
2023-02-24T12:41:06.495Z,7.60
2023-02-24T12:46:38.475Z,7.80
2023-02-24T12:52:20.684Z,8.10
2023-02-24T12:57:34.518Z,8.40
2023-02-24T13:03:00.704Z,8.60
2023-02-24T13:08:08.248Z,8.23
2023-02-24T13:13:19.616Z,11.60
2023-02-24T13:18:34.978Z,13.45
2023-02-24T13:23:40.303Z,11.20
2023-02-24T13:28:43.068Z,8.18
2023-02-24T13:33:45.557Z,7.25
2023-02-24T13:39:03.614Z,7.32
2023-02-24T13:44:25.076Z,7.72
2023-02-24T13:49:35.717Z,7.68
2023-02-24T13:55:11.112Z,9.57
2023-02-24T14:00:32.941Z,7.80
2023-02-24T14:05:36.322Z,7.97
2023-02-24T14:10:39.099Z,7.78
2023-02-24T14:15:43.951Z,8.70
2023-02-24T14:20:46.153Z,7.43
2023-02-24T14:25:49.689Z,7.10
2023-02-24T14:30:54.900Z,7.43
2023-02-24T14:35:57.311Z,6.72
2023-02-24T14:40:58.730Z,6.82
2023-02-24T14:46:05.780Z,6.65
2023-02-24T14:51:12.812Z,5.72
2023-02-24T14:56:15.640Z,5.18
2023-02-24T15:01:25.193Z,6.25
2023-02-24T15:06:32.762Z,4.63
2023-02-24T15:11:37.108Z,5.50
2023-02-24T15:16:43.748Z,5.25
2023-02-24T15:21:45.228Z,5.35
2023-02-24T15:26:56.961Z,5.25
2023-02-24T15:32:00.634Z,5.65
2023-02-24T15:37:15.179Z,5.53
2023-02-24T15:42:16.837Z,4.57
2023-02-24T15:47:27.198Z,5.82
2023-02-24T15:52:29.671Z,4.95
2023-02-24T15:57:32.494Z,5.07
2023-02-24T16:02:33.925Z,5.05
2023-02-24T16:07:38.073Z,4.78
2023-02-24T16:12:46.622Z,4.60
2023-02-24T16:17:48.702Z,4.55
2023-02-24T16:22:50.078Z,4.90
2023-02-24T16:27:57.438Z,3.78
2023-02-24T16:33:01.371Z,4.20
2023-02-24T16:38:02.965Z,4.03
2023-02-24T16:43:04.888Z,3.22
2023-02-24T16:48:16.500Z,4.10
2023-02-24T16:53:23.645Z,3.78
2023-02-24T16:58:25.575Z,3.67
2023-02-24T17:03:33.466Z,3.95
2023-02-24T17:08:35.656Z,4.47
2023-02-24T17:13:37.041Z,5.05
2023-02-24T17:18:38.410Z,4.10
2023-02-24T17:23:40.043Z,3.42
2023-02-24T17:28:43.793Z,3.60
2023-02-24T17:33:45.247Z,5.63
2023-02-24T17:38:47.763Z,3.88
2023-02-24T17:43:53.602Z,3.70
2023-02-24T17:48:55.163Z,3.35
2023-02-24T17:53:57.071Z,3.05
2023-02-24T17:59:00.843Z,3.65
2023-02-24T18:04:02.282Z,2.72
2023-02-24T18:09:03.720Z,3.08
2023-02-24T18:14:06.198Z,3.90
2023-02-24T18:19:08.151Z,2.92
2023-02-24T18:24:10.102Z,2.63
2023-02-24T18:29:11.947Z,2.80
2023-02-24T18:34:13.381Z,2.55
2023-02-24T18:39:15.115Z,2.10
2023-02-24T18:44:16.797Z,2.60
2023-02-24T18:49:18.538Z,2.63
2023-02-24T18:54:20.301Z,2.72
2023-02-24T18:59:21.733Z,2.92
2023-02-24T19:04:26.167Z,3.03
2023-02-24T19:09:29.083Z,2.78
2023-02-24T19:14:31.622Z,3.25
2023-02-24T19:19:33.179Z,3.60
2023-02-24T19:24:35.029Z,3.78
2023-02-24T19:29:36.397Z,4.47
2023-02-24T19:34:38.234Z,3.05
2023-02-24T19:39:40.053Z,4.00
2023-02-24T19:44:41.655Z,4.43
2023-02-24T19:49:43.372Z,4.50
2023-02-24T19:54:44.746Z,4.85
2023-02-24T19:59:46.307Z,4.53
2023-02-24T20:04:48.271Z,5.05
2023-02-24T20:09:49.916Z,4.93
2023-02-24T20:14:51.442Z,4.13
2023-02-24T20:19:53.377Z,4.70
2023-02-24T20:24:55.399Z,4.97
2023-02-24T20:29:57.192Z,5.03
2023-02-24T20:34:59.008Z,5.28
2023-02-24T20:40:00.925Z,4.35
2023-02-24T20:45:03.397Z,5.20
2023-02-24T20:50:05.948Z,4.90
2023-02-24T20:55:10.146Z,5.60
2023-02-24T21:00:12.311Z,5.20
2023-02-24T21:05:20.389Z,5.75
2023-02-24T21:10:26.370Z,6.22
2023-02-24T21:15:28.120Z,7.32
2023-02-24T21:20:30.412Z,6.90
2023-02-24T21:25:32.267Z,5.10
2023-02-24T21:30:33.655Z,7.13
2023-02-24T21:35:35.298Z,6.43
2023-02-24T21:40:37.373Z,6.75
2023-02-24T21:45:39.704Z,7.00
2023-02-24T21:50:41.316Z,6.43
2023-02-24T21:55:43.033Z,6.10
2023-02-24T22:00:44.719Z,6.32
2023-02-24T22:05:49.959Z,5.72
2023-02-24T22:11:01.560Z,6.28
2023-02-24T22:16:11.401Z,5.65
2023-02-24T22:21:17.260Z,5.30
2023-02-24T22:26:20.044Z,3.20
2023-02-24T22:31:24.254Z,3.20
2023-02-24T22:36:29.299Z,3.40
2023-02-24T22:41:33.920Z,2.10
2023-02-24T22:46:37.588Z,2.72
2023-02-24T22:51:39.275Z,2.65
2023-02-24T22:56:40.674Z,2.10
2023-02-24T23:01:42.873Z,1.55
2023-02-24T23:06:44.900Z,1.60
2023-02-24T23:11:47.605Z,1.80
2023-02-24T23:16:54.737Z,1.63
2023-02-24T23:21:57.062Z,1.20
2023-02-24T23:26:58.730Z,1.58
2023-02-24T23:32:00.274Z,1.80
2023-02-24T23:37:01.881Z,1.88
2023-02-24T23:42:03.365Z,1.85
2023-02-24T23:47:06.209Z,2.10
2023-02-24T23:52:08.545Z,1.50
2023-02-24T23:57:10.174Z,1.75
